sensor_id;sensor_type;location;lat;lon;timestamp;P1;durP1;ratioP1;P2;durP2;ratioP2
78288;SDS011;67539;48.752;12.922;2023-02-12T00:01:06;60.05;;;39.90;;
78288;SDS011;67539;48.752;12.922;2023-02-12T00:03:35;61.42;;;40.95;;
78288;SDS011;67539;48.752;12.922;2023-02-12T00:06:04;61.30;;;38.40;;
78288;SDS011;67539;48.752;12.922;2023-02-12T00:08:33;60.72;;;39.38;;
78288;SDS011;67539;48.752;12.922;2023-02-12T00:11:05;62.80;;;39.17;;
78288;SDS011;67539;48.752;12.922;2023-02-12T00:13:36;61.88;;;38.22;;
78288;SDS011;67539;48.752;12.922;2023-02-12T00:16:05;61.22;;;38.40;;
78288;SDS011;67539;48.752;12.922;2023-02-12T00:18:34;65.47;;;39.88;;
78288;SDS011;67539;48.752;12.922;2023-02-12T00:21:02;62.22;;;39.22;;
78288;SDS011;67539;48.752;12.922;2023-02-12T00:23:31;56.42;;;37.67;;
78288;SDS011;67539;48.752;12.922;2023-02-12T00:25:59;65.20;;;38.63;;
78288;SDS011;67539;48.752;12.922;2023-02-12T00:28:31;61.78;;;39.85;;
78288;SDS011;67539;48.752;12.922;2023-02-12T00:31:04;56.78;;;36.65;;
78288;SDS011;67539;48.752;12.922;2023-02-12T00:33:33;61.55;;;38.42;;
78288;SDS011;67539;48.752;12.922;2023-02-12T00:36:01;59.70;;;39.38;;
78288;SDS011;67539;48.752;12.922;2023-02-12T00:38:30;56.83;;;38.15;;
78288;SDS011;67539;48.752;12.922;2023-02-12T00:40:58;56.95;;;37.85;;
78288;SDS011;67539;48.752;12.922;2023-02-12T00:43:26;60.90;;;37.35;;
78288;SDS011;67539;48.752;12.922;2023-02-12T00:45:54;59.70;;;37.35;;
78288;SDS011;67539;48.752;12.922;2023-02-12T00:48:26;63.65;;;39.17;;
78288;SDS011;67539;48.752;12.922;2023-02-12T00:50:54;58.80;;;38.15;;
78288;SDS011;67539;48.752;12.922;2023-02-12T00:53:22;60.30;;;38.00;;
78288;SDS011;67539;48.752;12.922;2023-02-12T00:55:50;60.85;;;38.28;;
78288;SDS011;67539;48.752;12.922;2023-02-12T00:58:20;57.38;;;36.95;;
78288;SDS011;67539;48.752;12.922;2023-02-12T01:00:49;61.47;;;37.28;;
78288;SDS011;67539;48.752;12.922;2023-02-12T01:03:17;68.70;;;41.63;;
78288;SDS011;67539;48.752;12.922;2023-02-12T01:05:47;65.43;;;42.35;;
78288;SDS011;67539;48.752;12.922;2023-02-12T01:08:15;59.72;;;37.83;;
78288;SDS011;67539;48.752;12.922;2023-02-12T01:10:43;62.25;;;39.72;;
78288;SDS011;67539;48.752;12.922;2023-02-12T01:13:11;63.00;;;39.17;;
78288;SDS011;67539;48.752;12.922;2023-02-12T01:15:40;57.00;;;38.92;;
78288;SDS011;67539;48.752;12.922;2023-02-12T01:18:08;66.15;;;40.33;;
78288;SDS011;67539;48.752;12.922;2023-02-12T01:20:38;65.40;;;39.00;;
78288;SDS011;67539;48.752;12.922;2023-02-12T01:23:07;58.25;;;36.72;;
78288;SDS011;67539;48.752;12.922;2023-02-12T01:25:36;59.40;;;38.03;;
78288;SDS011;67539;48.752;12.922;2023-02-12T01:28:05;63.38;;;39.05;;
78288;SDS011;67539;48.752;12.922;2023-02-12T01:30:33;57.40;;;36.85;;
78288;SDS011;67539;48.752;12.922;2023-02-12T01:33:01;60.30;;;39.08;;
78288;SDS011;67539;48.752;12.922;2023-02-12T01:35:29;56.75;;;37.85;;
78288;SDS011;67539;48.752;12.922;2023-02-12T01:37:57;60.58;;;37.85;;
78288;SDS011;67539;48.752;12.922;2023-02-12T01:40:27;66.07;;;39.53;;
78288;SDS011;67539;48.752;12.922;2023-02-12T01:42:56;58.20;;;36.72;;
78288;SDS011;67539;48.752;12.922;2023-02-12T01:48:16;61.63;;;36.60;;
78288;SDS011;67539;48.752;12.922;2023-02-12T01:50:46;75.80;;;44.20;;
78288;SDS011;67539;48.752;12.922;2023-02-12T01:53:16;70.65;;;43.03;;
78288;SDS011;67539;48.752;12.922;2023-02-12T01:55:49;67.63;;;41.65;;
78288;SDS011;67539;48.752;12.922;2023-02-12T01:58:20;61.47;;;41.17;;
78288;SDS011;67539;48.752;12.922;2023-02-12T02:00:51;68.82;;;43.38;;
78288;SDS011;67539;48.752;12.922;2023-02-12T02:03:19;63.22;;;38.55;;
78288;SDS011;67539;48.752;12.922;2023-02-12T02:05:49;67.75;;;41.42;;
78288;SDS011;67539;48.752;12.922;2023-02-12T02:08:24;58.08;;;39.50;;
78288;SDS011;67539;48.752;12.922;2023-02-12T02:10:53;59.30;;;39.72;;
78288;SDS011;67539;48.752;12.922;2023-02-12T02:13:22;63.90;;;40.38;;
78288;SDS011;67539;48.752;12.922;2023-02-12T02:16:09;55.10;;;37.00;;
78288;SDS011;67539;48.752;12.922;2023-02-12T02:18:45;59.25;;;38.75;;
78288;SDS011;67539;48.752;12.922;2023-02-12T02:21:30;65.50;;;40.67;;
78288;SDS011;67539;48.752;12.922;2023-02-12T02:24:15;68.20;;;42.72;;
78288;SDS011;67539;48.752;12.922;2023-02-12T02:27:18;64.10;;;40.60;;
78288;SDS011;67539;48.752;12.922;2023-02-12T02:33:05;66.75;;;41.00;;
78288;SDS011;67539;48.752;12.922;2023-02-12T02:35:48;66.80;;;40.88;;
78288;SDS011;67539;48.752;12.922;2023-02-12T02:38:24;58.97;;;37.90;;
78288;SDS011;67539;48.752;12.922;2023-02-12T02:41:01;66.05;;;39.25;;
78288;SDS011;67539;48.752;12.922;2023-02-12T02:43:35;62.47;;;39.53;;
78288;SDS011;67539;48.752;12.922;2023-02-12T02:46:10;58.10;;;39.25;;
78288;SDS011;67539;48.752;12.922;2023-02-12T02:48:43;65.50;;;39.78;;
78288;SDS011;67539;48.752;12.922;2023-02-12T02:51:17;65.82;;;41.10;;
78288;SDS011;67539;48.752;12.922;2023-02-12T02:53:48;59.35;;;38.75;;
78288;SDS011;67539;48.752;12.922;2023-02-12T02:56:20;62.92;;;38.80;;
78288;SDS011;67539;48.752;12.922;2023-02-12T02:58:52;58.90;;;36.90;;
78288;SDS011;67539;48.752;12.922;2023-02-12T03:01:25;55.50;;;37.90;;
78288;SDS011;67539;48.752;12.922;2023-02-12T03:03:58;64.07;;;40.33;;
78288;SDS011;67539;48.752;12.922;2023-02-12T03:06:31;66.55;;;38.15;;
78288;SDS011;67539;48.752;12.922;2023-02-12T03:09:08;53.85;;;37.10;;
78288;SDS011;67539;48.752;12.922;2023-02-12T03:11:41;57.53;;;38.50;;
78288;SDS011;67539;48.752;12.922;2023-02-12T03:14:10;60.38;;;38.60;;
78288;SDS011;67539;48.752;12.922;2023-02-12T03:16:48;60.72;;;36.60;;
78288;SDS011;67539;48.752;12.922;2023-02-12T03:19:21;54.20;;;36.28;;
78288;SDS011;67539;48.752;12.922;2023-02-12T03:21:53;60.40;;;37.05;;
78288;SDS011;67539;48.752;12.922;2023-02-12T03:24:28;57.50;;;35.88;;
78288;SDS011;67539;48.752;12.922;2023-02-12T03:27:02;59.50;;;37.70;;
78288;SDS011;67539;48.752;12.922;2023-02-12T03:29:34;60.08;;;38.15;;
78288;SDS011;67539;48.752;12.922;2023-02-12T03:32:07;54.05;;;34.90;;
78288;SDS011;67539;48.752;12.922;2023-02-12T03:34:45;55.17;;;35.00;;
78288;SDS011;67539;48.752;12.922;2023-02-12T03:37:18;55.00;;;34.40;;
78288;SDS011;67539;48.752;12.922;2023-02-12T03:39:52;54.28;;;34.53;;
78288;SDS011;67539;48.752;12.922;2023-02-12T03:42:26;58.00;;;36.20;;
78288;SDS011;67539;48.752;12.922;2023-02-12T03:45:02;56.05;;;36.00;;
78288;SDS011;67539;48.752;12.922;2023-02-12T03:47:36;55.58;;;35.28;;
78288;SDS011;67539;48.752;12.922;2023-02-12T03:50:12;62.22;;;39.33;;
78288;SDS011;67539;48.752;12.922;2023-02-12T03:52:43;69.70;;;41.97;;
78288;SDS011;67539;48.752;12.922;2023-02-12T03:55:12;58.60;;;37.38;;
78288;SDS011;67539;48.752;12.922;2023-02-12T03:57:41;76.32;;;44.05;;
78288;SDS011;67539;48.752;12.922;2023-02-12T04:00:15;78.65;;;46.58;;
78288;SDS011;67539;48.752;12.922;2023-02-12T04:02:47;75.00;;;43.60;;
78288;SDS011;67539;48.752;12.922;2023-02-12T04:05:16;66.70;;;41.60;;
78288;SDS011;67539;48.752;12.922;2023-02-12T04:07:46;66.78;;;39.53;;
78288;SDS011;67539;48.752;12.922;2023-02-12T04:10:15;65.40;;;39.72;;
78288;SDS011;67539;48.752;12.922;2023-02-12T04:12:45;62.28;;;38.42;;
78288;SDS011;67539;48.752;12.922;2023-02-12T04:15:28;64.78;;;38.10;;
78288;SDS011;67539;48.752;12.922;2023-02-12T04:18:08;59.88;;;35.28;;
78288;SDS011;67539;48.752;12.922;2023-02-12T04:20:45;59.28;;;36.38;;
78288;SDS011;67539;48.752;12.922;2023-02-12T04:23:31;62.72;;;38.55;;
78288;SDS011;67539;48.752;12.922;2023-02-12T04:26:16;73.80;;;42.65;;
78288;SDS011;67539;48.752;12.922;2023-02-12T04:29:03;78.10;;;42.10;;
78288;SDS011;67539;48.752;12.922;2023-02-12T04:31:37;69.80;;;38.60;;
78288;SDS011;67539;48.752;12.922;2023-02-12T04:34:11;61.00;;;37.15;;
78288;SDS011;67539;48.752;12.922;2023-02-12T04:36:44;67.70;;;40.15;;
78288;SDS011;67539;48.752;12.922;2023-02-12T04:39:17;70.45;;;41.55;;
78288;SDS011;67539;48.752;12.922;2023-02-12T04:41:48;71.32;;;40.88;;
78288;SDS011;67539;48.752;12.922;2023-02-12T04:44:17;68.85;;;39.08;;
78288;SDS011;67539;48.752;12.922;2023-02-12T04:46:48;58.65;;;36.58;;
78288;SDS011;67539;48.752;12.922;2023-02-12T04:49:19;61.00;;;37.17;;
78288;SDS011;67539;48.752;12.922;2023-02-12T04:51:48;59.97;;;38.28;;
78288;SDS011;67539;48.752;12.922;2023-02-12T04:54:17;62.15;;;36.08;;
78288;SDS011;67539;48.752;12.922;2023-02-12T04:56:46;59.38;;;36.90;;
78288;SDS011;67539;48.752;12.922;2023-02-12T04:59:15;68.05;;;39.00;;
78288;SDS011;67539;48.752;12.922;2023-02-12T05:01:44;57.72;;;37.45;;
78288;SDS011;67539;48.752;12.922;2023-02-12T05:04:12;59.38;;;37.60;;
78288;SDS011;67539;48.752;12.922;2023-02-12T05:06:43;66.90;;;39.42;;
78288;SDS011;67539;48.752;12.922;2023-02-12T05:09:13;61.58;;;37.70;;
78288;SDS011;67539;48.752;12.922;2023-02-12T05:11:42;59.90;;;35.72;;
78288;SDS011;67539;48.752;12.922;2023-02-12T05:14:10;51.35;;;32.60;;
78288;SDS011;67539;48.752;12.922;2023-02-12T05:16:39;49.63;;;31.70;;
78288;SDS011;67539;48.752;12.922;2023-02-12T05:19:07;56.75;;;33.67;;
78288;SDS011;67539;48.752;12.922;2023-02-12T05:21:35;56.03;;;33.90;;
78288;SDS011;67539;48.752;12.922;2023-02-12T05:24:05;53.92;;;33.40;;
78288;SDS011;67539;48.752;12.922;2023-02-12T05:26:34;53.22;;;32.88;;
78288;SDS011;67539;48.752;12.922;2023-02-12T05:29:02;49.72;;;31.92;;
78288;SDS011;67539;48.752;12.922;2023-02-12T05:31:30;54.85;;;34.92;;
78288;SDS011;67539;48.752;12.922;2023-02-12T05:33:59;55.20;;;34.60;;
78288;SDS011;67539;48.752;12.922;2023-02-12T05:36:27;52.05;;;33.17;;
78288;SDS011;67539;48.752;12.922;2023-02-12T05:38:56;62.45;;;36.50;;
78288;SDS011;67539;48.752;12.922;2023-02-12T05:41:26;58.30;;;37.33;;
78288;SDS011;67539;48.752;12.922;2023-02-12T05:43:54;61.15;;;37.00;;
78288;SDS011;67539;48.752;12.922;2023-02-12T05:46:23;63.92;;;39.70;;
78288;SDS011;67539;48.752;12.922;2023-02-12T05:48:51;69.00;;;40.88;;
78288;SDS011;67539;48.752;12.922;2023-02-12T05:51:20;67.53;;;40.80;;
78288;SDS011;67539;48.752;12.922;2023-02-12T05:53:51;73.47;;;41.28;;
78288;SDS011;67539;48.752;12.922;2023-02-12T05:56:23;73.35;;;40.35;;
78288;SDS011;67539;48.752;12.922;2023-02-12T05:58:55;64.68;;;38.53;;
78288;SDS011;67539;48.752;12.922;2023-02-12T06:01:26;78.10;;;42.92;;
78288;SDS011;67539;48.752;12.922;2023-02-12T06:03:57;75.90;;;42.90;;
78288;SDS011;67539;48.752;12.922;2023-02-12T06:06:25;86.43;;;46.90;;
78288;SDS011;67539;48.752;12.922;2023-02-12T06:08:55;91.00;;;45.83;;
78288;SDS011;67539;48.752;12.922;2023-02-12T06:11:23;74.50;;;40.40;;
78288;SDS011;67539;48.752;12.922;2023-02-12T06:13:51;71.95;;;41.00;;
78288;SDS011;67539;48.752;12.922;2023-02-12T06:16:21;65.60;;;38.00;;
78288;SDS011;67539;48.752;12.922;2023-02-12T06:18:51;67.68;;;37.60;;
78288;SDS011;67539;48.752;12.922;2023-02-12T06:21:20;60.85;;;37.53;;
78288;SDS011;67539;48.752;12.922;2023-02-12T06:23:49;60.25;;;35.80;;
78288;SDS011;67539;48.752;12.922;2023-02-12T06:26:18;58.97;;;35.78;;
78288;SDS011;67539;48.752;12.922;2023-02-12T06:28:48;59.92;;;36.25;;
78288;SDS011;67539;48.752;12.922;2023-02-12T06:31:17;61.50;;;37.35;;
78288;SDS011;67539;48.752;12.922;2023-02-12T06:33:48;69.93;;;38.80;;
78288;SDS011;67539;48.752;12.922;2023-02-12T06:36:16;70.90;;;40.45;;
78288;SDS011;67539;48.752;12.922;2023-02-12T06:38:44;66.47;;;40.80;;
78288;SDS011;67539;48.752;12.922;2023-02-12T06:41:12;79.97;;;49.10;;
78288;SDS011;67539;48.752;12.922;2023-02-12T06:43:41;66.95;;;41.45;;
78288;SDS011;67539;48.752;12.922;2023-02-12T06:46:09;66.47;;;38.97;;
78288;SDS011;67539;48.752;12.922;2023-02-12T06:48:38;66.78;;;39.70;;
78288;SDS011;67539;48.752;12.922;2023-02-12T06:51:08;76.72;;;40.03;;
78288;SDS011;67539;48.752;12.922;2023-02-12T06:53:42;68.90;;;38.85;;
78288;SDS011;67539;48.752;12.922;2023-02-12T06:56:11;67.10;;;38.13;;
78288;SDS011;67539;48.752;12.922;2023-02-12T06:58:40;60.60;;;36.00;;
78288;SDS011;67539;48.752;12.922;2023-02-12T07:01:10;61.78;;;38.80;;
78288;SDS011;67539;48.752;12.922;2023-02-12T07:03:41;64.10;;;39.60;;
78288;SDS011;67539;48.752;12.922;2023-02-12T07:06:10;60.58;;;39.05;;
78288;SDS011;67539;48.752;12.922;2023-02-12T07:08:42;70.18;;;42.40;;
78288;SDS011;67539;48.752;12.922;2023-02-12T07:11:10;66.70;;;40.85;;
78288;SDS011;67539;48.752;12.922;2023-02-12T07:13:38;79.40;;;40.88;;
78288;SDS011;67539;48.752;12.922;2023-02-12T07:16:07;60.92;;;36.80;;
78288;SDS011;67539;48.752;12.922;2023-02-12T07:18:37;63.78;;;37.60;;
78288;SDS011;67539;48.752;12.922;2023-02-12T07:21:06;69.45;;;38.75;;
78288;SDS011;67539;48.752;12.922;2023-02-12T07:23:36;65.07;;;39.08;;
78288;SDS011;67539;48.752;12.922;2023-02-12T07:26:06;70.05;;;39.75;;
78288;SDS011;67539;48.752;12.922;2023-02-12T07:28:37;65.75;;;39.30;;
78288;SDS011;67539;48.752;12.922;2023-02-12T07:31:05;67.60;;;41.05;;
78288;SDS011;67539;48.752;12.922;2023-02-12T07:33:35;63.20;;;39.70;;
78288;SDS011;67539;48.752;12.922;2023-02-12T07:36:06;63.97;;;40.25;;
78288;SDS011;67539;48.752;12.922;2023-02-12T07:38:37;67.68;;;41.75;;
78288;SDS011;67539;48.752;12.922;2023-02-12T07:41:06;61.33;;;39.13;;
78288;SDS011;67539;48.752;12.922;2023-02-12T07:43:39;62.78;;;39.55;;
78288;SDS011;67539;48.752;12.922;2023-02-12T07:46:09;66.50;;;41.28;;
78288;SDS011;67539;48.752;12.922;2023-02-12T07:48:38;64.28;;;40.50;;
78288;SDS011;67539;48.752;12.922;2023-02-12T07:51:07;69.38;;;41.35;;
78288;SDS011;67539;48.752;12.922;2023-02-12T07:53:38;62.95;;;38.75;;
78288;SDS011;67539;48.752;12.922;2023-02-12T07:56:07;75.97;;;46.30;;
78288;SDS011;67539;48.752;12.922;2023-02-12T07:58:36;69.47;;;42.72;;
78288;SDS011;67539;48.752;12.922;2023-02-12T08:01:13;67.93;;;41.22;;
78288;SDS011;67539;48.752;12.922;2023-02-12T08:03:43;69.07;;;42.10;;
78288;SDS011;67539;48.752;12.922;2023-02-12T08:06:12;71.95;;;40.30;;
78288;SDS011;67539;48.752;12.922;2023-02-12T08:08:44;72.57;;;40.72;;
78288;SDS011;67539;48.752;12.922;2023-02-12T08:11:12;68.13;;;41.70;;
78288;SDS011;67539;48.752;12.922;2023-02-12T08:13:41;78.60;;;42.45;;
78288;SDS011;67539;48.752;12.922;2023-02-12T08:16:10;70.45;;;40.58;;
78288;SDS011;67539;48.752;12.922;2023-02-12T08:18:40;68.30;;;39.50;;
78288;SDS011;67539;48.752;12.922;2023-02-12T08:21:09;69.05;;;41.13;;
78288;SDS011;67539;48.752;12.922;2023-02-12T08:23:38;72.95;;;42.17;;
78288;SDS011;67539;48.752;12.922;2023-02-12T08:26:09;81.10;;;41.83;;
78288;SDS011;67539;48.752;12.922;2023-02-12T08:28:40;64.97;;;39.00;;
78288;SDS011;67539;48.752;12.922;2023-02-12T08:31:12;64.63;;;38.08;;
78288;SDS011;67539;48.752;12.922;2023-02-12T08:33:43;63.40;;;40.25;;
78288;SDS011;67539;48.752;12.922;2023-02-12T08:36:12;67.93;;;42.92;;
78288;SDS011;67539;48.752;12.922;2023-02-12T08:38:42;80.88;;;42.15;;
78288;SDS011;67539;48.752;12.922;2023-02-12T08:41:14;66.72;;;39.15;;
78288;SDS011;67539;48.752;12.922;2023-02-12T08:43:45;84.88;;;53.53;;
78288;SDS011;67539;48.752;12.922;2023-02-12T08:46:15;69.07;;;42.45;;
78288;SDS011;67539;48.752;12.922;2023-02-12T08:48:45;70.45;;;39.55;;
78288;SDS011;67539;48.752;12.922;2023-02-12T08:51:14;61.20;;;38.65;;
78288;SDS011;67539;48.752;12.922;2023-02-12T08:53:44;64.10;;;39.28;;
78288;SDS011;67539;48.752;12.922;2023-02-12T08:56:15;77.75;;;41.70;;
78288;SDS011;67539;48.752;12.922;2023-02-12T08:58:44;67.53;;;40.60;;
78288;SDS011;67539;48.752;12.922;2023-02-12T09:01:13;68.00;;;39.60;;
78288;SDS011;67539;48.752;12.922;2023-02-12T09:03:43;64.55;;;38.67;;
78288;SDS011;67539;48.752;12.922;2023-02-12T09:06:12;75.25;;;38.33;;
78288;SDS011;67539;48.752;12.922;2023-02-12T09:08:41;66.57;;;41.05;;
78288;SDS011;67539;48.752;12.922;2023-02-12T09:11:12;78.25;;;40.60;;
78288;SDS011;67539;48.752;12.922;2023-02-12T09:13:44;78.82;;;41.45;;
78288;SDS011;67539;48.752;12.922;2023-02-12T09:16:13;71.25;;;39.47;;
78288;SDS011;67539;48.752;12.922;2023-02-12T09:18:41;77.22;;;42.53;;
78288;SDS011;67539;48.752;12.922;2023-02-12T09:21:11;72.03;;;44.08;;
78288;SDS011;67539;48.752;12.922;2023-02-12T09:23:42;78.43;;;42.97;;
78288;SDS011;67539;48.752;12.922;2023-02-12T09:26:11;77.33;;;41.30;;
78288;SDS011;67539;48.752;12.922;2023-02-12T09:28:40;83.57;;;44.38;;
78288;SDS011;67539;48.752;12.922;2023-02-12T09:31:10;83.82;;;41.05;;
78288;SDS011;67539;48.752;12.922;2023-02-12T09:33:40;86.40;;;42.90;;
78288;SDS011;67539;48.752;12.922;2023-02-12T09:36:09;79.03;;;42.33;;
78288;SDS011;67539;48.752;12.922;2023-02-12T09:38:39;82.95;;;44.70;;
78288;SDS011;67539;48.752;12.922;2023-02-12T09:41:33;81.43;;;43.50;;
78288;SDS011;67539;48.752;12.922;2023-02-12T09:44:14;77.73;;;40.97;;
78288;SDS011;67539;48.752;12.922;2023-02-12T09:46:49;78.40;;;42.83;;
78288;SDS011;67539;48.752;12.922;2023-02-12T09:49:22;92.07;;;44.40;;
78288;SDS011;67539;48.752;12.922;2023-02-12T09:52:09;89.27;;;44.67;;
78288;SDS011;67539;48.752;12.922;2023-02-12T09:54:42;77.77;;;40.47;;
78288;SDS011;67539;48.752;12.922;2023-02-12T09:57:13;86.97;;;44.20;;
78288;SDS011;67539;48.752;12.922;2023-02-12T09:59:46;83.40;;;40.33;;
78288;SDS011;67539;48.752;12.922;2023-02-12T10:02:20;79.43;;;42.80;;
78288;SDS011;67539;48.752;12.922;2023-02-12T10:04:50;83.13;;;43.50;;
78288;SDS011;67539;48.752;12.922;2023-02-12T10:07:30;87.83;;;45.30;;
78288;SDS011;67539;48.752;12.922;2023-02-12T10:10:15;83.43;;;40.60;;
78288;SDS011;67539;48.752;12.922;2023-02-12T10:12:53;85.17;;;43.30;;
78288;SDS011;67539;48.752;12.922;2023-02-12T10:15:27;94.50;;;43.30;;
78288;SDS011;67539;48.752;12.922;2023-02-12T10:18:04;81.87;;;43.70;;
78288;SDS011;67539;48.752;12.922;2023-02-12T10:20:51;75.90;;;39.83;;
78288;SDS011;67539;48.752;12.922;2023-02-12T10:23:33;80.10;;;42.00;;
78288;SDS011;67539;48.752;12.922;2023-02-12T10:26:12;92.20;;;43.80;;
78288;SDS011;67539;48.752;12.922;2023-02-12T10:28:45;84.30;;;42.23;;
78288;SDS011;67539;48.752;12.922;2023-02-12T10:31:15;89.30;;;42.20;;
78288;SDS011;67539;48.752;12.922;2023-02-12T10:33:50;74.00;;;40.40;;
78288;SDS011;67539;48.752;12.922;2023-02-12T10:36:24;78.10;;;39.13;;
78288;SDS011;67539;48.752;12.922;2023-02-12T10:39:00;74.97;;;38.50;;
78288;SDS011;67539;48.752;12.922;2023-02-12T10:41:34;80.60;;;39.53;;
78288;SDS011;67539;48.752;12.922;2023-02-12T10:44:08;74.47;;;39.50;;
78288;SDS011;67539;48.752;12.922;2023-02-12T10:46:37;84.43;;;41.07;;
78288;SDS011;67539;48.752;12.922;2023-02-12T10:49:06;81.03;;;41.40;;
78288;SDS011;67539;48.752;12.922;2023-02-12T10:51:40;75.23;;;38.80;;
78288;SDS011;67539;48.752;12.922;2023-02-12T10:54:35;75.50;;;38.90;;
78288;SDS011;67539;48.752;12.922;2023-02-12T10:57:10;64.77;;;37.70;;
78288;SDS011;67539;48.752;12.922;2023-02-12T10:59:41;76.47;;;40.03;;
78288;SDS011;67539;48.752;12.922;2023-02-12T11:02:16;77.70;;;42.10;;
78288;SDS011;67539;48.752;12.922;2023-02-12T11:04:52;86.40;;;43.27;;
78288;SDS011;67539;48.752;12.922;2023-02-12T11:07:21;74.67;;;37.90;;
78288;SDS011;67539;48.752;12.922;2023-02-12T11:09:51;71.60;;;38.20;;
78288;SDS011;67539;48.752;12.922;2023-02-12T11:12:23;84.57;;;42.10;;
78288;SDS011;67539;48.752;12.922;2023-02-12T11:14:56;82.37;;;39.30;;
78288;SDS011;67539;48.752;12.922;2023-02-12T11:17:27;85.37;;;40.60;;
78288;SDS011;67539;48.752;12.922;2023-02-12T11:20:02;82.17;;;40.60;;
78288;SDS011;67539;48.752;12.922;2023-02-12T11:22:35;86.13;;;40.07;;
78288;SDS011;67539;48.752;12.922;2023-02-12T11:25:09;77.63;;;41.07;;
78288;SDS011;67539;48.752;12.922;2023-02-12T11:27:42;75.43;;;37.30;;
78288;SDS011;67539;48.752;12.922;2023-02-12T11:30:13;87.53;;;39.00;;
78288;SDS011;67539;48.752;12.922;2023-02-12T11:32:44;72.60;;;34.57;;
78288;SDS011;67539;48.752;12.922;2023-02-12T11:35:16;72.10;;;35.10;;
78288;SDS011;67539;48.752;12.922;2023-02-12T11:37:51;65.53;;;34.03;;
78288;SDS011;67539;48.752;12.922;2023-02-12T11:40:22;67.73;;;34.47;;
78288;SDS011;67539;48.752;12.922;2023-02-12T11:42:52;70.30;;;32.57;;
78288;SDS011;67539;48.752;12.922;2023-02-12T11:45:24;67.27;;;33.07;;
78288;SDS011;67539;48.752;12.922;2023-02-12T11:47:56;57.33;;;30.07;;
78288;SDS011;67539;48.752;12.922;2023-02-12T11:50:27;57.73;;;30.80;;
78288;SDS011;67539;48.752;12.922;2023-02-12T11:52:58;58.00;;;30.50;;
78288;SDS011;67539;48.752;12.922;2023-02-12T11:55:28;55.03;;;28.07;;
78288;SDS011;67539;48.752;12.922;2023-02-12T11:58:03;48.53;;;25.40;;
78288;SDS011;67539;48.752;12.922;2023-02-12T12:00:40;46.40;;;26.93;;
78288;SDS011;67539;48.752;12.922;2023-02-12T12:03:13;49.33;;;26.80;;
78288;SDS011;67539;48.752;12.922;2023-02-12T12:05:48;57.20;;;27.27;;
78288;SDS011;67539;48.752;12.922;2023-02-12T12:08:20;58.13;;;30.13;;
78288;SDS011;67539;48.752;12.922;2023-02-12T12:10:54;42.47;;;24.13;;
78288;SDS011;67539;48.752;12.922;2023-02-12T12:13:26;45.37;;;25.00;;
78288;SDS011;67539;48.752;12.922;2023-02-12T12:15:59;47.70;;;24.07;;
78288;SDS011;67539;48.752;12.922;2023-02-12T12:18:53;41.07;;;21.33;;
78288;SDS011;67539;48.752;12.922;2023-02-12T12:21:44;43.53;;;24.40;;
78288;SDS011;67539;48.752;12.922;2023-02-12T12:24:18;38.07;;;21.73;;
78288;SDS011;67539;48.752;12.922;2023-02-12T12:29:50;36.63;;;19.80;;
78288;SDS011;67539;48.752;12.922;2023-02-12T12:32:26;36.90;;;22.07;;
78288;SDS011;67539;48.752;12.922;2023-02-12T12:34:57;34.97;;;20.33;;
78288;SDS011;67539;48.752;12.922;2023-02-12T12:37:29;32.87;;;19.87;;
78288;SDS011;67539;48.752;12.922;2023-02-12T12:40:08;36.30;;;20.83;;
78288;SDS011;67539;48.752;12.922;2023-02-12T12:42:49;33.43;;;19.70;;
78288;SDS011;67539;48.752;12.922;2023-02-12T12:45:32;30.33;;;18.20;;
78288;SDS011;67539;48.752;12.922;2023-02-12T12:48:24;36.70;;;22.20;;
78288;SDS011;67539;48.752;12.922;2023-02-12T12:51:11;34.60;;;20.03;;
78288;SDS011;67539;48.752;12.922;2023-02-12T12:53:55;36.87;;;20.00;;
78288;SDS011;67539;48.752;12.922;2023-02-12T12:56:36;39.00;;;20.97;;
78288;SDS011;67539;48.752;12.922;2023-02-12T12:59:21;35.43;;;20.23;;
78288;SDS011;67539;48.752;12.922;2023-02-12T13:05:13;38.33;;;22.40;;
78288;SDS011;67539;48.752;12.922;2023-02-12T13:08:05;36.43;;;20.53;;
78288;SDS011;67539;48.752;12.922;2023-02-12T13:10:42;41.07;;;21.73;;
78288;SDS011;67539;48.752;12.922;2023-02-12T13:13:19;37.00;;;20.50;;
78288;SDS011;67539;48.752;12.922;2023-02-12T13:15:54;37.63;;;21.67;;
78288;SDS011;67539;48.752;12.922;2023-02-12T13:18:33;37.10;;;21.07;;
78288;SDS011;67539;48.752;12.922;2023-02-12T13:21:12;38.97;;;21.97;;
78288;SDS011;67539;48.752;12.922;2023-02-12T13:23:52;41.53;;;23.57;;
78288;SDS011;67539;48.752;12.922;2023-02-12T13:26:25;43.50;;;24.07;;
78288;SDS011;67539;48.752;12.922;2023-02-12T13:29:00;34.70;;;21.30;;
78288;SDS011;67539;48.752;12.922;2023-02-12T13:31:34;38.77;;;22.50;;
78288;SDS011;67539;48.752;12.922;2023-02-12T13:34:12;34.50;;;21.43;;
78288;SDS011;67539;48.752;12.922;2023-02-12T13:36:43;34.70;;;20.33;;
78288;SDS011;67539;48.752;12.922;2023-02-12T13:39:14;32.97;;;19.80;;
78288;SDS011;67539;48.752;12.922;2023-02-12T13:41:56;32.83;;;20.73;;
78288;SDS011;67539;48.752;12.922;2023-02-12T13:44:31;33.83;;;21.77;;
78288;SDS011;67539;48.752;12.922;2023-02-12T13:47:06;39.30;;;22.80;;
78288;SDS011;67539;48.752;12.922;2023-02-12T13:49:40;41.63;;;23.00;;
78288;SDS011;67539;48.752;12.922;2023-02-12T13:52:16;42.73;;;24.70;;
78288;SDS011;67539;48.752;12.922;2023-02-12T13:54:55;38.67;;;22.20;;
78288;SDS011;67539;48.752;12.922;2023-02-12T13:57:32;36.23;;;20.90;;
78288;SDS011;67539;48.752;12.922;2023-02-12T14:00:00;36.13;;;20.20;;
78288;SDS011;67539;48.752;12.922;2023-02-12T14:02:43;36.23;;;20.63;;
78288;SDS011;67539;48.752;12.922;2023-02-12T14:05:28;34.77;;;20.37;;
78288;SDS011;67539;48.752;12.922;2023-02-12T14:07:58;39.50;;;21.67;;
78288;SDS011;67539;48.752;12.922;2023-02-12T14:10:30;38.93;;;22.20;;
78288;SDS011;67539;48.752;12.922;2023-02-12T14:13:18;37.17;;;21.20;;
78288;SDS011;67539;48.752;12.922;2023-02-12T14:15:49;38.83;;;20.90;;
78288;SDS011;67539;48.752;12.922;2023-02-12T15:23:32;40.87;;;22.20;;
78288;SDS011;67539;48.752;12.922;2023-02-12T15:26:02;43.23;;;22.67;;
78288;SDS011;67539;48.752;12.922;2023-02-12T15:28:33;40.03;;;22.20;;
78288;SDS011;67539;48.752;12.922;2023-02-12T15:31:03;37.37;;;21.57;;
78288;SDS011;67539;48.752;12.922;2023-02-12T15:33:36;43.33;;;22.37;;
78288;SDS011;67539;48.752;12.922;2023-02-12T15:36:08;43.80;;;23.13;;
78288;SDS011;67539;48.752;12.922;2023-02-12T15:38:39;40.27;;;22.37;;
78288;SDS011;67539;48.752;12.922;2023-02-12T15:41:21;71.40;;;35.00;;
78288;SDS011;67539;48.752;12.922;2023-02-12T15:43:51;68.03;;;34.97;;
78288;SDS011;67539;48.752;12.922;2023-02-12T15:46:20;46.73;;;26.20;;
78288;SDS011;67539;48.752;12.922;2023-02-12T15:48:48;43.23;;;23.43;;
78288;SDS011;67539;48.752;12.922;2023-02-12T15:51:18;54.27;;;29.30;;
78288;SDS011;67539;48.752;12.922;2023-02-12T15:53:54;56.50;;;30.13;;
78288;SDS011;67539;48.752;12.922;2023-02-12T15:56:24;48.57;;;25.63;;